sensor_id;sensor_type;location;lat;lon;timestamp;P1;durP1;ratioP1;P2;durP2;ratioP2
75038;SDS011;63609;49.992;14.512;2022-11-12T15:29:22;45.13;;;20.58;;
75038;SDS011;63609;49.992;14.512;2022-11-12T15:34:57;64.97;;;22.85;;
75038;SDS011;63609;49.992;14.512;2022-11-12T15:37:43;62.75;;;22.60;;
75038;SDS011;63609;49.992;14.512;2022-11-12T15:40:28;63.13;;;21.58;;
75038;SDS011;63609;49.992;14.512;2022-11-12T15:43:17;54.55;;;20.42;;
75038;SDS011;63609;49.992;14.512;2022-11-12T15:46:11;62.63;;;21.95;;
75038;SDS011;63609;49.992;14.512;2022-11-12T15:49:01;72.32;;;22.02;;
75038;SDS011;63609;49.992;14.512;2022-11-12T15:51:47;73.85;;;22.90;;
75038;SDS011;63609;49.992;14.512;2022-11-12T15:54:33;56.15;;;21.92;;
75038;SDS011;63609;49.992;14.512;2022-11-12T15:57:26;66.32;;;24.13;;
75038;SDS011;63609;49.992;14.512;2022-11-12T16:00:17;74.68;;;31.77;;
75038;SDS011;63609;49.992;14.512;2022-11-12T16:03:11;72.85;;;23.63;;
75038;SDS011;63609;49.992;14.512;2022-11-12T16:05:58;65.70;;;23.92;;
75038;SDS011;63609;49.992;14.512;2022-11-12T16:08:53;53.33;;;20.08;;
75038;SDS011;63609;49.992;14.512;2022-11-12T16:11:38;48.33;;;21.20;;
75038;SDS011;63609;49.992;14.512;2022-11-12T16:14:24;41.40;;;20.20;;
75038;SDS011;63609;49.992;14.512;2022-11-12T16:17:12;54.90;;;19.13;;
75038;SDS011;63609;49.992;14.512;2022-11-12T16:19:59;44.58;;;18.75;;
75038;SDS011;63609;49.992;14.512;2022-11-12T16:22:45;39.45;;;18.33;;
75038;SDS011;63609;49.992;14.512;2022-11-12T16:25:33;49.15;;;21.38;;
75038;SDS011;63609;49.992;14.512;2022-11-12T16:28:21;68.55;;;22.23;;
75038;SDS011;63609;49.992;14.512;2022-11-12T16:31:06;65.22;;;21.50;;
75038;SDS011;63609;49.992;14.512;2022-11-12T16:33:51;56.63;;;22.05;;
75038;SDS011;63609;49.992;14.512;2022-11-12T16:36:37;50.03;;;18.45;;
75038;SDS011;63609;49.992;14.512;2022-11-12T16:39:23;56.25;;;19.48;;
75038;SDS011;63609;49.992;14.512;2022-11-12T16:42:11;53.80;;;19.25;;
75038;SDS011;63609;49.992;14.512;2022-11-12T16:44:56;49.58;;;16.80;;
75038;SDS011;63609;49.992;14.512;2022-11-12T16:47:42;52.40;;;17.65;;
75038;SDS011;63609;49.992;14.512;2022-11-12T16:50:34;45.78;;;18.65;;
75038;SDS011;63609;49.992;14.512;2022-11-12T16:53:20;75.18;;;20.92;;
75038;SDS011;63609;49.992;14.512;2022-11-12T16:56:09;61.63;;;18.33;;
75038;SDS011;63609;49.992;14.512;2022-11-12T16:58:56;70.35;;;19.08;;
75038;SDS011;63609;49.992;14.512;2022-11-12T17:01:41;40.75;;;18.00;;
75038;SDS011;63609;49.992;14.512;2022-11-12T17:04:28;44.95;;;17.48;;
75038;SDS011;63609;49.992;14.512;2022-11-12T17:07:13;51.55;;;17.75;;
75038;SDS011;63609;49.992;14.512;2022-11-12T17:09:59;48.67;;;17.58;;
75038;SDS011;63609;49.992;14.512;2022-11-12T17:12:46;53.80;;;18.58;;
75038;SDS011;63609;49.992;14.512;2022-11-12T17:15:32;66.38;;;18.33;;
75038;SDS011;63609;49.992;14.512;2022-11-12T17:18:18;56.35;;;19.30;;
75038;SDS011;63609;49.992;14.512;2022-11-12T17:21:10;43.70;;;17.45;;
75038;SDS011;63609;49.992;14.512;2022-11-12T17:23:57;37.45;;;16.33;;
75038;SDS011;63609;49.992;14.512;2022-11-12T17:26:43;43.53;;;16.63;;
75038;SDS011;63609;49.992;14.512;2022-11-12T17:29:29;48.20;;;16.33;;
75038;SDS011;63609;49.992;14.512;2022-11-12T17:32:14;43.50;;;16.98;;
75038;SDS011;63609;49.992;14.512;2022-11-12T17:34:59;45.72;;;17.25;;
75038;SDS011;63609;49.992;14.512;2022-11-12T17:37:45;44.80;;;16.08;;
75038;SDS011;63609;49.992;14.512;2022-11-12T17:40:31;46.80;;;16.77;;
75038;SDS011;63609;49.992;14.512;2022-11-12T17:43:16;60.60;;;17.35;;
75038;SDS011;63609;49.992;14.512;2022-11-12T17:46:02;60.50;;;16.67;;
75038;SDS011;63609;49.992;14.512;2022-11-12T17:48:49;75.70;;;19.90;;
75038;SDS011;63609;49.992;14.512;2022-11-12T17:51:35;54.70;;;15.73;;
75038;SDS011;63609;49.992;14.512;2022-11-12T17:54:20;59.75;;;16.10;;
75038;SDS011;63609;49.992;14.512;2022-11-12T17:57:06;56.40;;;16.55;;
75038;SDS011;63609;49.992;14.512;2022-11-12T17:59:51;55.17;;;16.15;;
75038;SDS011;63609;49.992;14.512;2022-11-12T18:02:37;66.18;;;17.65;;
75038;SDS011;63609;49.992;14.512;2022-11-12T18:05:23;93.45;;;18.58;;
75038;SDS011;63609;49.992;14.512;2022-11-12T18:08:09;59.22;;;16.15;;
75038;SDS011;63609;49.992;14.512;2022-11-12T18:10:54;58.83;;;17.08;;
75038;SDS011;63609;49.992;14.512;2022-11-12T18:13:41;57.35;;;17.63;;
75038;SDS011;63609;49.992;14.512;2022-11-12T18:16:26;60.92;;;16.95;;
75038;SDS011;63609;49.992;14.512;2022-11-12T18:19:12;49.50;;;15.52;;
75038;SDS011;63609;49.992;14.512;2022-11-12T18:21:58;51.22;;;15.98;;
75038;SDS011;63609;49.992;14.512;2022-11-12T18:24:44;51.72;;;15.63;;
75038;SDS011;63609;49.992;14.512;2022-11-12T18:27:31;53.22;;;16.58;;
75038;SDS011;63609;49.992;14.512;2022-11-12T18:30:17;52.17;;;14.70;;
75038;SDS011;63609;49.992;14.512;2022-11-12T18:33:03;53.70;;;14.52;;
75038;SDS011;63609;49.992;14.512;2022-11-12T18:35:58;47.10;;;15.52;;
75038;SDS011;63609;49.992;14.512;2022-11-12T18:38:47;58.75;;;18.75;;
75038;SDS011;63609;49.992;14.512;2022-11-12T18:41:34;66.38;;;19.25;;
75038;SDS011;63609;49.992;14.512;2022-11-12T18:44:19;50.22;;;16.38;;
75038;SDS011;63609;49.992;14.512;2022-11-12T18:47:10;32.72;;;15.05;;
75038;SDS011;63609;49.992;14.512;2022-11-12T18:49:55;39.97;;;16.50;;
75038;SDS011;63609;49.992;14.512;2022-11-12T18:52:41;41.05;;;14.35;;
75038;SDS011;63609;49.992;14.512;2022-11-12T18:55:27;56.65;;;15.68;;
75038;SDS011;63609;49.992;14.512;2022-11-12T18:58:12;83.10;;;18.02;;
75038;SDS011;63609;49.992;14.512;2022-11-12T19:01:02;45.70;;;15.50;;
75038;SDS011;63609;49.992;14.512;2022-11-12T19:03:53;47.30;;;16.20;;
75038;SDS011;63609;49.992;14.512;2022-11-12T19:06:39;38.17;;;14.70;;
75038;SDS011;63609;49.992;14.512;2022-11-12T19:09:25;54.03;;;16.80;;
75038;SDS011;63609;49.992;14.512;2022-11-12T19:12:10;42.85;;;15.40;;
75038;SDS011;63609;49.992;14.512;2022-11-12T19:14:56;44.85;;;14.13;;
75038;SDS011;63609;49.992;14.512;2022-11-12T19:17:41;35.80;;;16.83;;
75038;SDS011;63609;49.992;14.512;2022-11-12T19:20:27;51.83;;;15.32;;
75038;SDS011;63609;49.992;14.512;2022-11-12T19:23:13;91.07;;;18.55;;
75038;SDS011;63609;49.992;14.512;2022-11-12T19:26:00;57.35;;;16.15;;
75038;SDS011;63609;49.992;14.512;2022-11-12T19:28:45;48.05;;;13.93;;
75038;SDS011;63609;49.992;14.512;2022-11-12T19:31:31;48.50;;;15.90;;
75038;SDS011;63609;49.992;14.512;2022-11-12T19:34:18;31.02;;;12.85;;
75038;SDS011;63609;49.992;14.512;2022-11-12T19:37:03;49.72;;;13.30;;
75038;SDS011;63609;49.992;14.512;2022-11-12T19:40:10;44.58;;;14.23;;
75038;SDS011;63609;49.992;14.512;2022-11-12T19:42:55;35.67;;;14.00;;
75038;SDS011;63609;49.992;14.512;2022-11-12T19:45:41;34.55;;;12.75;;
75038;SDS011;63609;49.992;14.512;2022-11-12T19:48:26;42.78;;;13.15;;
75038;SDS011;63609;49.992;14.512;2022-11-12T19:51:12;41.25;;;13.77;;
75038;SDS011;63609;49.992;14.512;2022-11-12T19:53:58;36.95;;;12.68;;
75038;SDS011;63609;49.992;14.512;2022-11-12T19:56:45;43.70;;;13.90;;
75038;SDS011;63609;49.992;14.512;2022-11-12T19:59:30;58.58;;;15.07;;
75038;SDS011;63609;49.992;14.512;2022-11-12T20:02:16;37.15;;;13.50;;
75038;SDS011;63609;49.992;14.512;2022-11-12T20:05:01;37.33;;;13.23;;
75038;SDS011;63609;49.992;14.512;2022-11-12T20:07:48;46.95;;;13.13;;
75038;SDS011;63609;49.992;14.512;2022-11-12T20:10:34;30.83;;;10.95;;
75038;SDS011;63609;49.992;14.512;2022-11-12T20:13:19;42.38;;;12.27;;
75038;SDS011;63609;49.992;14.512;2022-11-12T20:16:08;34.83;;;13.05;;
75038;SDS011;63609;49.992;14.512;2022-11-12T20:18:56;37.05;;;11.63;;
75038;SDS011;63609;49.992;14.512;2022-11-12T20:21:43;36.35;;;13.13;;
75038;SDS011;63609;49.992;14.512;2022-11-12T20:24:28;31.45;;;12.52;;
75038;SDS011;63609;49.992;14.512;2022-11-12T20:27:14;33.17;;;12.00;;
75038;SDS011;63609;49.992;14.512;2022-11-12T20:30:01;25.70;;;10.98;;
75038;SDS011;63609;49.992;14.512;2022-11-12T20:32:47;46.15;;;12.20;;
75038;SDS011;63609;49.992;14.512;2022-11-12T20:35:34;45.60;;;12.50;;
75038;SDS011;63609;49.992;14.512;2022-11-12T20:38:20;45.65;;;12.07;;
75038;SDS011;63609;49.992;14.512;2022-11-12T20:41:06;26.80;;;11.80;;
75038;SDS011;63609;49.992;14.512;2022-11-12T20:43:56;30.27;;;10.63;;
75038;SDS011;63609;49.992;14.512;2022-11-12T20:46:44;45.03;;;13.07;;
75038;SDS011;63609;49.992;14.512;2022-11-12T20:49:30;46.67;;;13.68;;
75038;SDS011;63609;49.992;14.512;2022-11-12T20:52:18;51.80;;;13.27;;
75038;SDS011;63609;49.992;14.512;2022-11-12T20:55:04;40.15;;;11.75;;
75038;SDS011;63609;49.992;14.512;2022-11-12T20:57:49;48.38;;;13.30;;
75038;SDS011;63609;49.992;14.512;2022-11-12T21:00:35;34.38;;;11.20;;
75038;SDS011;63609;49.992;14.512;2022-11-12T21:03:21;53.50;;;12.80;;
75038;SDS011;63609;49.992;14.512;2022-11-12T21:06:08;29.70;;;11.77;;
75038;SDS011;63609;49.992;14.512;2022-11-12T21:08:58;47.30;;;13.60;;
75038;SDS011;63609;49.992;14.512;2022-11-12T21:11:44;35.65;;;12.60;;
75038;SDS011;63609;49.992;14.512;2022-11-12T21:14:29;47.30;;;14.40;;
75038;SDS011;63609;49.992;14.512;2022-11-12T21:17:14;30.02;;;10.38;;
75038;SDS011;63609;49.992;14.512;2022-11-12T21:20:00;35.55;;;11.98;;
75038;SDS011;63609;49.992;14.512;2022-11-12T21:22:46;33.15;;;11.50;;
75038;SDS011;63609;49.992;14.512;2022-11-12T21:25:35;49.30;;;12.10;;
75038;SDS011;63609;49.992;14.512;2022-11-12T21:28:20;36.40;;;11.07;;
75038;SDS011;63609;49.992;14.512;2022-11-12T21:31:07;38.58;;;11.85;;
75038;SDS011;63609;49.992;14.512;2022-11-12T21:33:55;39.63;;;10.63;;
75038;SDS011;63609;49.992;14.512;2022-11-12T21:36:44;58.70;;;12.50;;
75038;SDS011;63609;49.992;14.512;2022-11-12T21:39:30;39.47;;;11.88;;
75038;SDS011;63609;49.992;14.512;2022-11-12T21:42:15;39.20;;;9.80;;
75038;SDS011;63609;49.992;14.512;2022-11-12T21:45:00;55.10;;;11.52;;
75038;SDS011;63609;49.992;14.512;2022-11-12T21:47:48;39.78;;;10.48;;
75038;SDS011;63609;49.992;14.512;2022-11-12T21:50:33;54.53;;;11.15;;
75038;SDS011;63609;49.992;14.512;2022-11-12T21:53:19;38.17;;;10.55;;
75038;SDS011;63609;49.992;14.512;2022-11-12T21:56:05;44.75;;;10.77;;
75038;SDS011;63609;49.992;14.512;2022-11-12T21:58:54;26.85;;;9.32;;
75038;SDS011;63609;49.992;14.512;2022-11-12T22:01:44;29.05;;;9.55;;
75038;SDS011;63609;49.992;14.512;2022-11-12T22:04:30;26.85;;;8.10;;
75038;SDS011;63609;49.992;14.512;2022-11-12T22:07:15;20.63;;;9.07;;
75038;SDS011;63609;49.992;14.512;2022-11-12T22:10:01;28.77;;;9.05;;
75038;SDS011;63609;49.992;14.512;2022-11-12T22:12:47;29.42;;;9.88;;
75038;SDS011;63609;49.992;14.512;2022-11-12T22:15:53;31.85;;;9.98;;
75038;SDS011;63609;49.992;14.512;2022-11-12T22:18:38;26.88;;;10.07;;
75038;SDS011;63609;49.992;14.512;2022-11-12T22:21:28;27.35;;;9.75;;
75038;SDS011;63609;49.992;14.512;2022-11-12T22:24:22;36.65;;;11.05;;
75038;SDS011;63609;49.992;14.512;2022-11-12T22:27:08;21.17;;;9.30;;
75038;SDS011;63609;49.992;14.512;2022-11-12T22:29:53;24.23;;;8.95;;
75038;SDS011;63609;49.992;14.512;2022-11-12T22:32:38;23.85;;;9.73;;
75038;SDS011;63609;49.992;14.512;2022-11-12T22:35:24;26.70;;;10.40;;
75038;SDS011;63609;49.992;14.512;2022-11-12T22:38:09;31.30;;;10.45;;
75038;SDS011;63609;49.992;14.512;2022-11-12T22:40:59;31.92;;;9.02;;
75038;SDS011;63609;49.992;14.512;2022-11-12T22:43:46;33.30;;;10.50;;
75038;SDS011;63609;49.992;14.512;2022-11-12T22:46:33;29.67;;;9.43;;
75038;SDS011;63609;49.992;14.512;2022-11-12T22:49:19;25.95;;;9.43;;
75038;SDS011;63609;49.992;14.512;2022-11-12T22:52:04;35.58;;;11.60;;
75038;SDS011;63609;49.992;14.512;2022-11-12T22:54:50;30.30;;;10.13;;
75038;SDS011;63609;49.992;14.512;2022-11-12T22:57:35;38.83;;;10.18;;
75038;SDS011;63609;49.992;14.512;2022-11-12T23:00:27;33.90;;;9.57;;
75038;SDS011;63609;49.992;14.512;2022-11-12T23:03:23;30.92;;;9.65;;
75038;SDS011;63609;49.992;14.512;2022-11-12T23:06:08;23.05;;;8.38;;
75038;SDS011;63609;49.992;14.512;2022-11-12T23:08:54;41.83;;;9.90;;
75038;SDS011;63609;49.992;14.512;2022-11-12T23:11:47;29.30;;;9.43;;
75038;SDS011;63609;49.992;14.512;2022-11-12T23:14:32;51.25;;;9.00;;
75038;SDS011;63609;49.992;14.512;2022-11-12T23:17:18;22.65;;;9.13;;
75038;SDS011;63609;49.992;14.512;2022-11-12T23:20:03;19.38;;;7.93;;
75038;SDS011;63609;49.992;14.512;2022-11-12T23:22:49;47.05;;;9.77;;
75038;SDS011;63609;49.992;14.512;2022-11-12T23:25:34;19.05;;;7.93;;
75038;SDS011;63609;49.992;14.512;2022-11-12T23:28:20;36.35;;;8.88;;
75038;SDS011;63609;49.992;14.512;2022-11-12T23:31:08;35.58;;;8.68;;
75038;SDS011;63609;49.992;14.512;2022-11-12T23:33:56;24.65;;;7.95;;
75038;SDS011;63609;49.992;14.512;2022-11-12T23:36:44;29.05;;;7.00;;
75038;SDS011;63609;49.992;14.512;2022-11-12T23:39:29;26.63;;;8.15;;
75038;SDS011;63609;49.992;14.512;2022-11-12T23:42:14;23.17;;;8.55;;
75038;SDS011;63609;49.992;14.512;2022-11-12T23:45:00;24.88;;;8.45;;
75038;SDS011;63609;49.992;14.512;2022-11-12T23:47:45;32.38;;;10.32;;
75038;SDS011;63609;49.992;14.512;2022-11-12T23:50:31;26.73;;;9.38;;
75038;SDS011;63609;49.992;14.512;2022-11-12T23:56:01;43.88;;;9.65;;
75038;SDS011;63609;49.992;14.512;2022-11-12T23:58:51;26.70;;;8.85;;
